sensor_id;sensor_type;location;lat;lon;timestamp;P1;durP1;ratioP1;P2;durP2;ratioP2
64903;SDS011;51401;48.882;12.598;2023-02-23T00:01:54;15.82;;;11.60;;
64903;SDS011;51401;48.882;12.598;2023-02-23T00:04:21;14.13;;;10.65;;
64903;SDS011;51401;48.882;12.598;2023-02-23T00:06:48;13.98;;;11.43;;
64903;SDS011;51401;48.882;12.598;2023-02-23T00:09:16;12.77;;;10.70;;
64903;SDS011;51401;48.882;12.598;2023-02-23T00:11:55;12.77;;;10.95;;
64903;SDS011;51401;48.882;12.598;2023-02-23T00:14:25;13.23;;;10.85;;
64903;SDS011;51401;48.882;12.598;2023-02-23T00:16:52;17.98;;;11.45;;
64903;SDS011;51401;48.882;12.598;2023-02-23T00:19:18;13.45;;;10.93;;
64903;SDS011;51401;48.882;12.598;2023-02-23T00:21:43;15.32;;;12.38;;
64903;SDS011;51401;48.882;12.598;2023-02-23T00:24:10;12.82;;;11.20;;
64903;SDS011;51401;48.882;12.598;2023-02-23T00:26:43;15.82;;;11.90;;
64903;SDS011;51401;48.882;12.598;2023-02-23T00:29:14;14.32;;;11.65;;
64903;SDS011;51401;48.882;12.598;2023-02-23T00:31:41;14.52;;;10.63;;
64903;SDS011;51401;48.882;12.598;2023-02-23T00:34:08;14.57;;;11.85;;
64903;SDS011;51401;48.882;12.598;2023-02-23T00:36:34;15.93;;;10.60;;
64903;SDS011;51401;48.882;12.598;2023-02-23T00:39:02;15.30;;;11.80;;
64903;SDS011;51401;48.882;12.598;2023-02-23T00:41:40;13.95;;;11.02;;
64903;SDS011;51401;48.882;12.598;2023-02-23T00:44:06;14.65;;;10.32;;
64903;SDS011;51401;48.882;12.598;2023-02-23T00:46:32;14.07;;;11.15;;
64903;SDS011;51401;48.882;12.598;2023-02-23T00:48:57;14.68;;;10.52;;
64903;SDS011;51401;48.882;12.598;2023-02-23T00:51:24;14.98;;;11.40;;
64903;SDS011;51401;48.882;12.598;2023-02-23T00:53:57;17.23;;;11.98;;
64903;SDS011;51401;48.882;12.598;2023-02-23T00:56:23;16.48;;;11.43;;
64903;SDS011;51401;48.882;12.598;2023-02-23T00:58:49;16.23;;;12.02;;
64903;SDS011;51401;48.882;12.598;2023-02-23T01:01:14;17.25;;;12.48;;
64903;SDS011;51401;48.882;12.598;2023-02-23T01:03:40;16.10;;;11.98;;
64903;SDS011;51401;48.882;12.598;2023-02-23T01:06:08;15.10;;;11.63;;
64903;SDS011;51401;48.882;12.598;2023-02-23T01:08:36;17.25;;;11.45;;
64903;SDS011;51401;48.882;12.598;2023-02-23T01:11:07;14.15;;;11.05;;
64903;SDS011;51401;48.882;12.598;2023-02-23T01:13:38;12.95;;;10.35;;
64903;SDS011;51401;48.882;12.598;2023-02-23T01:16:05;14.13;;;11.00;;
64903;SDS011;51401;48.882;12.598;2023-02-23T01:18:32;15.65;;;11.48;;
64903;SDS011;51401;48.882;12.598;2023-02-23T01:20:58;14.95;;;11.15;;
64903;SDS011;51401;48.882;12.598;2023-02-23T01:23:24;12.38;;;10.02;;
64903;SDS011;51401;48.882;12.598;2023-02-23T01:25:49;11.07;;;9.60;;
64903;SDS011;51401;48.882;12.598;2023-02-23T01:28:14;15.20;;;10.82;;
64903;SDS011;51401;48.882;12.598;2023-02-23T01:30:40;14.93;;;10.88;;
64903;SDS011;51401;48.882;12.598;2023-02-23T01:33:05;15.13;;;11.45;;
64903;SDS011;51401;48.882;12.598;2023-02-23T01:35:31;13.25;;;11.50;;
64903;SDS011;51401;48.882;12.598;2023-02-23T01:37:59;15.63;;;11.43;;
64903;SDS011;51401;48.882;12.598;2023-02-23T01:40:25;13.27;;;10.88;;
64903;SDS011;51401;48.882;12.598;2023-02-23T01:43:13;14.45;;;11.70;;
64903;SDS011;51401;48.882;12.598;2023-02-23T01:45:41;12.60;;;10.73;;
64903;SDS011;51401;48.882;12.598;2023-02-23T01:48:15;14.95;;;11.55;;
64903;SDS011;51401;48.882;12.598;2023-02-23T01:53:36;14.30;;;11.02;;
64903;SDS011;51401;48.882;12.598;2023-02-23T01:56:07;12.38;;;10.27;;
64903;SDS011;51401;48.882;12.598;2023-02-23T01:58:46;15.40;;;11.38;;
64903;SDS011;51401;48.882;12.598;2023-02-23T02:01:16;16.08;;;11.20;;
64903;SDS011;51401;48.882;12.598;2023-02-23T02:03:44;12.90;;;10.95;;
64903;SDS011;51401;48.882;12.598;2023-02-23T02:06:14;13.93;;;11.07;;
64903;SDS011;51401;48.882;12.598;2023-02-23T02:08:43;13.50;;;10.52;;
64903;SDS011;51401;48.882;12.598;2023-02-23T02:11:12;14.52;;;11.70;;
64903;SDS011;51401;48.882;12.598;2023-02-23T02:26:07;12.60;;;9.95;;
64903;SDS011;51401;48.882;12.598;2023-02-23T02:37:04;11.90;;;9.40;;
64903;SDS011;51401;48.882;12.598;2023-02-23T02:39:41;15.18;;;10.02;;
64903;SDS011;51401;48.882;12.598;2023-02-23T02:42:31;11.52;;;9.80;;
64903;SDS011;51401;48.882;12.598;2023-02-23T02:48:11;13.55;;;10.05;;
64903;SDS011;51401;48.882;12.598;2023-02-23T02:50:51;12.27;;;9.60;;
64903;SDS011;51401;48.882;12.598;2023-02-23T02:53:27;10.73;;;8.65;;
64903;SDS011;51401;48.882;12.598;2023-02-23T02:56:01;14.63;;;9.15;;
64903;SDS011;51401;48.882;12.598;2023-02-23T02:58:29;11.70;;;8.65;;
64903;SDS011;51401;48.882;12.598;2023-02-23T03:00:55;10.73;;;8.25;;
64903;SDS011;51401;48.882;12.598;2023-02-23T03:03:47;9.38;;;7.68;;
64903;SDS011;51401;48.882;12.598;2023-02-23T03:12:20;8.90;;;6.75;;
64903;SDS011;51401;48.882;12.598;2023-02-23T03:18:24;9.27;;;6.97;;
64903;SDS011;51401;48.882;12.598;2023-02-23T03:21:27;9.65;;;7.28;;
64903;SDS011;51401;48.882;12.598;2023-02-23T03:24:22;12.02;;;8.15;;
64903;SDS011;51401;48.882;12.598;2023-02-23T03:33:00;10.32;;;7.38;;
64903;SDS011;51401;48.882;12.598;2023-02-23T03:35:54;8.18;;;6.50;;
64903;SDS011;51401;48.882;12.598;2023-02-23T03:38:49;9.52;;;6.30;;
64903;SDS011;51401;48.882;12.598;2023-02-23T03:41:36;9.55;;;6.80;;
64903;SDS011;51401;48.882;12.598;2023-02-23T03:44:30;10.35;;;7.43;;
64903;SDS011;51401;48.882;12.598;2023-02-23T03:47:17;9.82;;;7.10;;
64903;SDS011;51401;48.882;12.598;2023-02-23T03:50:07;10.90;;;7.87;;
64903;SDS011;51401;48.882;12.598;2023-02-23T03:55:42;10.98;;;7.60;;
64903;SDS011;51401;48.882;12.598;2023-02-23T03:58:35;10.95;;;7.93;;
64903;SDS011;51401;48.882;12.598;2023-02-23T04:01:21;10.88;;;7.15;;
64903;SDS011;51401;48.882;12.598;2023-02-23T04:04:09;11.00;;;8.38;;
64903;SDS011;51401;48.882;12.598;2023-02-23T04:06:54;14.30;;;7.82;;
64903;SDS011;51401;48.882;12.598;2023-02-23T04:09:40;12.48;;;7.72;;
64903;SDS011;51401;48.882;12.598;2023-02-23T04:15:14;12.95;;;9.50;;
64903;SDS011;51401;48.882;12.598;2023-02-23T04:17:47;12.98;;;8.73;;
64903;SDS011;51401;48.882;12.598;2023-02-23T04:20:13;9.50;;;8.32;;
64903;SDS011;51401;48.882;12.598;2023-02-23T04:22:38;10.15;;;8.45;;
64903;SDS011;51401;48.882;12.598;2023-02-23T04:25:04;13.60;;;9.35;;
64903;SDS011;51401;48.882;12.598;2023-02-23T04:27:30;13.63;;;8.20;;
64903;SDS011;51401;48.882;12.598;2023-02-23T04:29:56;12.02;;;9.02;;
64903;SDS011;51401;48.882;12.598;2023-02-23T04:32:21;13.80;;;8.27;;
64903;SDS011;51401;48.882;12.598;2023-02-23T04:34:47;10.07;;;7.82;;
64903;SDS011;51401;48.882;12.598;2023-02-23T04:37:13;12.35;;;8.85;;
64903;SDS011;51401;48.882;12.598;2023-02-23T04:39:39;11.48;;;8.50;;
64903;SDS011;51401;48.882;12.598;2023-02-23T04:42:04;11.38;;;8.75;;
64903;SDS011;51401;48.882;12.598;2023-02-23T04:44:30;11.77;;;9.00;;
64903;SDS011;51401;48.882;12.598;2023-02-23T04:46:55;11.30;;;9.35;;
64903;SDS011;51401;48.882;12.598;2023-02-23T04:49:22;12.68;;;8.35;;
64903;SDS011;51401;48.882;12.598;2023-02-23T04:51:47;13.52;;;9.38;;
64903;SDS011;51401;48.882;12.598;2023-02-23T04:54:13;20.80;;;12.98;;
64903;SDS011;51401;48.882;12.598;2023-02-23T04:56:38;16.00;;;11.07;;
64903;SDS011;51401;48.882;12.598;2023-02-23T04:59:04;14.63;;;11.70;;
64903;SDS011;51401;48.882;12.598;2023-02-23T05:01:29;12.88;;;10.30;;
64903;SDS011;51401;48.882;12.598;2023-02-23T05:03:56;15.93;;;11.38;;
64903;SDS011;51401;48.882;12.598;2023-02-23T05:06:22;17.95;;;11.93;;
64903;SDS011;51401;48.882;12.598;2023-02-23T05:08:47;15.88;;;10.35;;
64903;SDS011;51401;48.882;12.598;2023-02-23T05:11:12;15.77;;;9.90;;
64903;SDS011;51401;48.882;12.598;2023-02-23T05:13:38;13.95;;;10.20;;
64903;SDS011;51401;48.882;12.598;2023-02-23T05:16:03;15.52;;;10.45;;
64903;SDS011;51401;48.882;12.598;2023-02-23T05:18:29;13.77;;;10.43;;
64903;SDS011;51401;48.882;12.598;2023-02-23T05:23:26;14.30;;;10.43;;
64903;SDS011;51401;48.882;12.598;2023-02-23T05:25:51;14.55;;;10.00;;
64903;SDS011;51401;48.882;12.598;2023-02-23T05:28:16;15.93;;;10.40;;
64903;SDS011;51401;48.882;12.598;2023-02-23T05:30:42;12.85;;;9.30;;
64903;SDS011;51401;48.882;12.598;2023-02-23T05:33:07;16.27;;;10.13;;
64903;SDS011;51401;48.882;12.598;2023-02-23T05:35:32;13.57;;;9.27;;
64903;SDS011;51401;48.882;12.598;2023-02-23T05:37:58;15.35;;;9.85;;
64903;SDS011;51401;48.882;12.598;2023-02-23T05:40:23;11.07;;;8.77;;
64903;SDS011;51401;48.882;12.598;2023-02-23T05:42:48;11.23;;;8.70;;
64903;SDS011;51401;48.882;12.598;2023-02-23T05:45:13;11.25;;;9.13;;
64903;SDS011;51401;48.882;12.598;2023-02-23T05:47:39;15.00;;;10.35;;
64903;SDS011;51401;48.882;12.598;2023-02-23T05:50:05;11.77;;;9.30;;
64903;SDS011;51401;48.882;12.598;2023-02-23T05:52:31;11.57;;;8.32;;
64903;SDS011;51401;48.882;12.598;2023-02-23T05:54:57;12.45;;;9.27;;
64903;SDS011;51401;48.882;12.598;2023-02-23T05:57:22;11.68;;;9.13;;
64903;SDS011;51401;48.882;12.598;2023-02-23T05:59:48;11.77;;;8.45;;
64903;SDS011;51401;48.882;12.598;2023-02-23T06:02:13;13.32;;;9.60;;
64903;SDS011;51401;48.882;12.598;2023-02-23T06:04:38;12.80;;;9.25;;
64903;SDS011;51401;48.882;12.598;2023-02-23T06:07:04;13.43;;;10.10;;
64903;SDS011;51401;48.882;12.598;2023-02-23T06:09:29;14.40;;;9.75;;
64903;SDS011;51401;48.882;12.598;2023-02-23T06:11:55;14.02;;;10.10;;
64903;SDS011;51401;48.882;12.598;2023-02-23T06:14:20;11.93;;;8.98;;
64903;SDS011;51401;48.882;12.598;2023-02-23T06:16:45;14.70;;;9.10;;
64903;SDS011;51401;48.882;12.598;2023-02-23T06:19:12;12.07;;;9.27;;
64903;SDS011;51401;48.882;12.598;2023-02-23T06:21:38;10.88;;;8.73;;
64903;SDS011;51401;48.882;12.598;2023-02-23T06:24:03;13.50;;;10.05;;
64903;SDS011;51401;48.882;12.598;2023-02-23T06:26:29;12.38;;;9.35;;
64903;SDS011;51401;48.882;12.598;2023-02-23T06:28:56;13.93;;;9.45;;
64903;SDS011;51401;48.882;12.598;2023-02-23T06:31:21;12.02;;;9.70;;
64903;SDS011;51401;48.882;12.598;2023-02-23T06:33:47;11.98;;;9.43;;
64903;SDS011;51401;48.882;12.598;2023-02-23T06:36:13;12.43;;;9.68;;
64903;SDS011;51401;48.882;12.598;2023-02-23T06:38:38;13.40;;;9.38;;
64903;SDS011;51401;48.882;12.598;2023-02-23T06:41:07;13.30;;;10.25;;
64903;SDS011;51401;48.882;12.598;2023-02-23T06:43:34;14.50;;;10.20;;
64903;SDS011;51401;48.882;12.598;2023-02-23T06:45:59;13.25;;;9.60;;
64903;SDS011;51401;48.882;12.598;2023-02-23T06:48:24;15.93;;;10.40;;
64903;SDS011;51401;48.882;12.598;2023-02-23T06:50:50;13.90;;;9.88;;
64903;SDS011;51401;48.882;12.598;2023-02-23T06:53:15;13.45;;;10.10;;
64903;SDS011;51401;48.882;12.598;2023-02-23T06:55:40;12.65;;;9.40;;
64903;SDS011;51401;48.882;12.598;2023-02-23T06:58:05;13.70;;;9.13;;
64903;SDS011;51401;48.882;12.598;2023-02-23T07:00:32;12.35;;;9.95;;
64903;SDS011;51401;48.882;12.598;2023-02-23T07:02:57;12.73;;;9.68;;
64903;SDS011;51401;48.882;12.598;2023-02-23T07:05:23;10.70;;;9.30;;
64903;SDS011;51401;48.882;12.598;2023-02-23T07:07:49;14.13;;;10.70;;
64903;SDS011;51401;48.882;12.598;2023-02-23T07:10:15;12.60;;;9.63;;
64903;SDS011;51401;48.882;12.598;2023-02-23T07:12:41;12.23;;;9.43;;
64903;SDS011;51401;48.882;12.598;2023-02-23T07:15:06;13.32;;;9.90;;
64903;SDS011;51401;48.882;12.598;2023-02-23T07:17:32;13.85;;;10.05;;
64903;SDS011;51401;48.882;12.598;2023-02-23T07:19:57;12.23;;;10.40;;
64903;SDS011;51401;48.882;12.598;2023-02-23T07:22:23;19.65;;;11.18;;
64903;SDS011;51401;48.882;12.598;2023-02-23T07:24:51;15.23;;;11.40;;
64903;SDS011;51401;48.882;12.598;2023-02-23T07:27:16;16.83;;;12.15;;
64903;SDS011;51401;48.882;12.598;2023-02-23T07:29:42;17.58;;;12.40;;
64903;SDS011;51401;48.882;12.598;2023-02-23T07:32:07;22.52;;;12.20;;
64903;SDS011;51401;48.882;12.598;2023-02-23T07:34:32;18.25;;;11.77;;
64903;SDS011;51401;48.882;12.598;2023-02-23T07:36:58;20.20;;;13.05;;
64903;SDS011;51401;48.882;12.598;2023-02-23T07:39:23;19.58;;;13.40;;
64903;SDS011;51401;48.882;12.598;2023-02-23T07:41:49;20.05;;;12.90;;
64903;SDS011;51401;48.882;12.598;2023-02-23T07:44:14;19.73;;;12.82;;
64903;SDS011;51401;48.882;12.598;2023-02-23T07:46:40;21.45;;;13.23;;
64903;SDS011;51401;48.882;12.598;2023-02-23T07:49:05;18.52;;;12.43;;
64903;SDS011;51401;48.882;12.598;2023-02-23T07:51:31;21.65;;;12.88;;
64903;SDS011;51401;48.882;12.598;2023-02-23T07:54:00;19.35;;;12.98;;
64903;SDS011;51401;48.882;12.598;2023-02-23T07:56:27;20.98;;;12.82;;
64903;SDS011;51401;48.882;12.598;2023-02-23T07:58:52;17.85;;;13.80;;
64903;SDS011;51401;48.882;12.598;2023-02-23T08:01:18;20.98;;;12.98;;
64903;SDS011;51401;48.882;12.598;2023-02-23T08:03:43;17.38;;;12.95;;
64903;SDS011;51401;48.882;12.598;2023-02-23T08:06:13;15.85;;;12.82;;
64903;SDS011;51401;48.882;12.598;2023-02-23T08:08:39;20.05;;;13.15;;
64903;SDS011;51401;48.882;12.598;2023-02-23T08:11:05;19.20;;;12.95;;
64903;SDS011;51401;48.882;12.598;2023-02-23T08:13:30;16.27;;;12.43;;
64903;SDS011;51401;48.882;12.598;2023-02-23T08:15:56;17.42;;;12.20;;
64903;SDS011;51401;48.882;12.598;2023-02-23T08:18:22;17.70;;;13.43;;
64903;SDS011;51401;48.882;12.598;2023-02-23T08:20:48;19.33;;;12.55;;
64903;SDS011;51401;48.882;12.598;2023-02-23T08:23:13;14.90;;;12.30;;
64903;SDS011;51401;48.882;12.598;2023-02-23T08:25:38;18.98;;;12.27;;
64903;SDS011;51401;48.882;12.598;2023-02-23T08:28:04;17.67;;;13.52;;
64903;SDS011;51401;48.882;12.598;2023-02-23T08:30:31;18.13;;;13.30;;
64903;SDS011;51401;48.882;12.598;2023-02-23T08:32:57;15.93;;;12.68;;
64903;SDS011;51401;48.882;12.598;2023-02-23T08:35:23;16.13;;;12.13;;
64903;SDS011;51401;48.882;12.598;2023-02-23T08:37:48;19.17;;;12.73;;
64903;SDS011;51401;48.882;12.598;2023-02-23T08:40:14;15.30;;;11.35;;
64903;SDS011;51401;48.882;12.598;2023-02-23T08:42:40;15.65;;;11.80;;
64903;SDS011;51401;48.882;12.598;2023-02-23T08:45:05;16.08;;;12.02;;
64903;SDS011;51401;48.882;12.598;2023-02-23T08:47:31;15.25;;;11.50;;
64903;SDS011;51401;48.882;12.598;2023-02-23T08:49:58;19.67;;;13.45;;
64903;SDS011;51401;48.882;12.598;2023-02-23T08:52:24;17.30;;;12.13;;
64903;SDS011;51401;48.882;12.598;2023-02-23T08:54:49;15.32;;;11.35;;
64903;SDS011;51401;48.882;12.598;2023-02-23T08:57:14;15.75;;;11.65;;
64903;SDS011;51401;48.882;12.598;2023-02-23T08:59:40;16.17;;;12.13;;
64903;SDS011;51401;48.882;12.598;2023-02-23T09:02:05;15.10;;;12.15;;
64903;SDS011;51401;48.882;12.598;2023-02-23T09:04:34;16.40;;;11.77;;
64903;SDS011;51401;48.882;12.598;2023-02-23T09:07:00;16.75;;;12.73;;
64903;SDS011;51401;48.882;12.598;2023-02-23T09:09:26;16.45;;;11.93;;
64903;SDS011;51401;48.882;12.598;2023-02-23T09:11:51;14.75;;;12.00;;
64903;SDS011;51401;48.882;12.598;2023-02-23T09:14:17;14.52;;;11.60;;
64903;SDS011;51401;48.882;12.598;2023-02-23T09:16:43;13.65;;;11.48;;
64903;SDS011;51401;48.882;12.598;2023-02-23T09:19:09;15.48;;;12.20;;
64903;SDS011;51401;48.882;12.598;2023-02-23T09:21:34;13.88;;;12.25;;
64903;SDS011;51401;48.882;12.598;2023-02-23T09:24:00;18.38;;;13.00;;
64903;SDS011;51401;48.882;12.598;2023-02-23T09:26:25;15.65;;;12.52;;
64903;SDS011;51401;48.882;12.598;2023-02-23T09:28:53;19.58;;;13.00;;
64903;SDS011;51401;48.882;12.598;2023-02-23T09:31:19;18.58;;;13.27;;
64903;SDS011;51401;48.882;12.598;2023-02-23T09:33:46;19.50;;;14.30;;
64903;SDS011;51401;48.882;12.598;2023-02-23T09:36:12;17.75;;;13.05;;
64903;SDS011;51401;48.882;12.598;2023-02-23T09:38:43;16.90;;;12.70;;
64903;SDS011;51401;48.882;12.598;2023-02-23T09:44:14;19.55;;;13.25;;
64903;SDS011;51401;48.882;12.598;2023-02-23T09:46:44;17.35;;;13.55;;
64903;SDS011;51401;48.882;12.598;2023-02-23T09:49:19;25.42;;;15.75;;
64903;SDS011;51401;48.882;12.598;2023-02-23T09:51:49;22.85;;;14.82;;
64903;SDS011;51401;48.882;12.598;2023-02-23T09:54:21;20.63;;;14.90;;
64903;SDS011;51401;48.882;12.598;2023-02-23T09:56:51;16.60;;;13.60;;
64903;SDS011;51401;48.882;12.598;2023-02-23T09:59:17;18.73;;;14.25;;
64903;SDS011;51401;48.882;12.598;2023-02-23T10:04:21;18.63;;;13.40;;
64903;SDS011;51401;48.882;12.598;2023-02-23T10:06:58;19.40;;;14.10;;
64903;SDS011;51401;48.882;12.598;2023-02-23T10:18:03;15.10;;;12.23;;
64903;SDS011;51401;48.882;12.598;2023-02-23T10:23:15;15.00;;;11.52;;
64903;SDS011;51401;48.882;12.598;2023-02-23T10:25:46;15.60;;;11.82;;
64903;SDS011;51401;48.882;12.598;2023-02-23T10:28:18;15.27;;;11.88;;
64903;SDS011;51401;48.882;12.598;2023-02-23T10:30:46;14.00;;;11.20;;
64903;SDS011;51401;48.882;12.598;2023-02-23T10:33:15;17.42;;;10.73;;
64903;SDS011;51401;48.882;12.598;2023-02-23T10:35:46;16.88;;;11.65;;
64903;SDS011;51401;48.882;12.598;2023-02-23T10:38:16;15.75;;;11.52;;
64903;SDS011;51401;48.882;12.598;2023-02-23T10:40:44;14.40;;;11.15;;
64903;SDS011;51401;48.882;12.598;2023-02-23T10:43:29;15.23;;;12.80;;
64903;SDS011;51401;48.882;12.598;2023-02-23T10:45:55;14.52;;;11.82;;
64903;SDS011;51401;48.882;12.598;2023-02-23T10:48:21;15.43;;;11.90;;
64903;SDS011;51401;48.882;12.598;2023-02-23T10:50:49;15.13;;;12.15;;
64903;SDS011;51401;48.882;12.598;2023-02-23T10:58:38;13.57;;;11.38;;
64903;SDS011;51401;48.882;12.598;2023-02-23T11:01:05;15.65;;;11.70;;
64903;SDS011;51401;48.882;12.598;2023-02-23T11:03:33;18.45;;;13.10;;
64903;SDS011;51401;48.882;12.598;2023-02-23T11:08:34;15.60;;;12.20;;
64903;SDS011;51401;48.882;12.598;2023-02-23T11:13:45;15.65;;;12.52;;
64903;SDS011;51401;48.882;12.598;2023-02-23T11:16:16;17.17;;;13.10;;
64903;SDS011;51401;48.882;12.598;2023-02-23T11:18:51;15.52;;;12.55;;
64903;SDS011;51401;48.882;12.598;2023-02-23T11:21:36;16.33;;;12.43;;
64903;SDS011;51401;48.882;12.598;2023-02-23T11:26:57;22.75;;;15.18;;
64903;SDS011;51401;48.882;12.598;2023-02-23T11:34:43;22.48;;;15.70;;
64903;SDS011;51401;48.882;12.598;2023-02-23T11:39:49;22.97;;;16.57;;
64903;SDS011;51401;48.882;12.598;2023-02-23T11:42:16;23.42;;;16.80;;
64903;SDS011;51401;48.882;12.598;2023-02-23T11:47:27;25.15;;;16.75;;
64903;SDS011;51401;48.882;12.598;2023-02-23T11:49:53;23.27;;;16.48;;
64903;SDS011;51401;48.882;12.598;2023-02-23T11:52:20;20.80;;;15.50;;
64903;SDS011;51401;48.882;12.598;2023-02-23T11:54:50;24.40;;;18.05;;
64903;SDS011;51401;48.882;12.598;2023-02-23T11:57:22;25.13;;;17.70;;
64903;SDS011;51401;48.882;12.598;2023-02-23T11:59:50;27.35;;;19.45;;
64903;SDS011;51401;48.882;12.598;2023-02-23T12:02:23;28.85;;;19.65;;
64903;SDS011;51401;48.882;12.598;2023-02-23T12:04:51;29.73;;;19.83;;
64903;SDS011;51401;48.882;12.598;2023-02-23T12:09:56;29.95;;;19.98;;
64903;SDS011;51401;48.882;12.598;2023-02-23T12:12:30;31.20;;;19.08;;
64903;SDS011;51401;48.882;12.598;2023-02-23T12:15:11;30.13;;;19.63;;
64903;SDS011;51401;48.882;12.598;2023-02-23T12:17:48;28.02;;;19.70;;
64903;SDS011;51401;48.882;12.598;2023-02-23T12:20:23;27.05;;;18.27;;
64903;SDS011;51401;48.882;12.598;2023-02-23T12:22:53;29.65;;;19.00;;
64903;SDS011;51401;48.882;12.598;2023-02-23T12:28:12;29.17;;;18.27;;
64903;SDS011;51401;48.882;12.598;2023-02-23T12:38:59;30.08;;;20.50;;
64903;SDS011;51401;48.882;12.598;2023-02-23T12:41:46;28.50;;;20.08;;
64903;SDS011;51401;48.882;12.598;2023-02-23T12:44:37;32.08;;;20.27;;
64903;SDS011;51401;48.882;12.598;2023-02-23T12:47:06;30.85;;;20.13;;
64903;SDS011;51401;48.882;12.598;2023-02-23T12:49:41;33.58;;;19.92;;
64903;SDS011;51401;48.882;12.598;2023-02-23T12:52:20;32.30;;;19.53;;
64903;SDS011;51401;48.882;12.598;2023-02-23T12:54:52;29.02;;;19.27;;
64903;SDS011;51401;48.882;12.598;2023-02-23T12:57:22;31.42;;;19.85;;
64903;SDS011;51401;48.882;12.598;2023-02-23T13:05:38;28.90;;;18.20;;
64903;SDS011;51401;48.882;12.598;2023-02-23T13:11:05;26.88;;;16.80;;
64903;SDS011;51401;48.882;12.598;2023-02-23T13:16:30;29.30;;;17.92;;
64903;SDS011;51401;48.882;12.598;2023-02-23T13:24:46;27.27;;;16.63;;
64903;SDS011;51401;48.882;12.598;2023-02-23T13:29:40;25.05;;;17.45;;
64903;SDS011;51401;48.882;12.598;2023-02-23T13:32:09;27.92;;;18.35;;
64903;SDS011;51401;48.882;12.598;2023-02-23T13:34:44;31.20;;;18.73;;
64903;SDS011;51401;48.882;12.598;2023-02-23T13:37:16;30.10;;;18.45;;
64903;SDS011;51401;48.882;12.598;2023-02-23T13:45:37;27.10;;;17.75;;
64903;SDS011;51401;48.882;12.598;2023-02-23T13:53:41;27.98;;;16.90;;
64903;SDS011;51401;48.882;12.598;2023-02-23T13:56:17;27.27;;;17.85;;
64903;SDS011;51401;48.882;12.598;2023-02-23T13:59:03;27.00;;;17.75;;
64903;SDS011;51401;48.882;12.598;2023-02-23T14:01:37;26.15;;;18.00;;
64903;SDS011;51401;48.882;12.598;2023-02-23T14:04:04;28.25;;;18.48;;
64903;SDS011;51401;48.882;12.598;2023-02-23T14:06:37;30.30;;;19.23;;
64903;SDS011;51401;48.882;12.598;2023-02-23T14:09:08;29.67;;;18.75;;
64903;SDS011;51401;48.882;12.598;2023-02-23T14:11:43;26.90;;;17.40;;
64903;SDS011;51401;48.882;12.598;2023-02-23T14:19:41;28.00;;;18.05;;
64903;SDS011;51401;48.882;12.598;2023-02-23T14:22:14;31.95;;;20.73;;
64903;SDS011;51401;48.882;12.598;2023-02-23T14:24:42;31.88;;;19.35;;
64903;SDS011;51401;48.882;12.598;2023-02-23T14:29:43;32.38;;;19.58;;
64903;SDS011;51401;48.882;12.598;2023-02-23T14:34:41;30.10;;;18.30;;
64903;SDS011;51401;48.882;12.598;2023-02-23T14:37:15;30.00;;;17.52;;
64903;SDS011;51401;48.882;12.598;2023-02-23T14:39:41;28.55;;;18.50;;
64903;SDS011;51401;48.882;12.598;2023-02-23T14:42:06;32.30;;;18.60;;
64903;SDS011;51401;48.882;12.598;2023-02-23T14:44:37;29.63;;;18.98;;
64903;SDS011;51401;48.882;12.598;2023-02-23T14:49:44;29.70;;;18.08;;
64903;SDS011;51401;48.882;12.598;2023-02-23T14:52:21;33.78;;;21.45;;
64903;SDS011;51401;48.882;12.598;2023-02-23T14:54:49;30.02;;;18.48;;
64903;SDS011;51401;48.882;12.598;2023-02-23T14:57:16;30.25;;;19.48;;
64903;SDS011;51401;48.882;12.598;2023-02-23T14:59:45;25.97;;;17.90;;
64903;SDS011;51401;48.882;12.598;2023-02-23T15:02:19;31.60;;;19.50;;
64903;SDS011;51401;48.882;12.598;2023-02-23T15:04:46;29.00;;;18.98;;
64903;SDS011;51401;48.882;12.598;2023-02-23T15:07:17;27.25;;;18.55;;
64903;SDS011;51401;48.882;12.598;2023-02-23T15:09:48;33.83;;;19.77;;
64903;SDS011;51401;48.882;12.598;2023-02-23T15:12:23;28.63;;;18.40;;
64903;SDS011;51401;48.882;12.598;2023-02-23T15:15:04;30.52;;;18.85;;
64903;SDS011;51401;48.882;12.598;2023-02-23T15:17:43;31.60;;;19.30;;
64903;SDS011;51401;48.882;12.598;2023-02-23T15:20:13;29.05;;;18.60;;
64903;SDS011;51401;48.882;12.598;2023-02-23T15:22:40;31.67;;;18.77;;
64903;SDS011;51401;48.882;12.598;2023-02-23T15:25:17;26.08;;;17.10;;
64903;SDS011;51401;48.882;12.598;2023-02-23T15:27:45;28.45;;;18.55;;
64903;SDS011;51401;48.882;12.598;2023-02-23T15:30:18;31.23;;;18.23;;
64903;SDS011;51401;48.882;12.598;2023-02-23T15:32:46;28.63;;;18.63;;
64903;SDS011;51401;48.882;12.598;2023-02-23T15:35:12;26.75;;;18.25;;
64903;SDS011;51401;48.882;12.598;2023-02-23T15:37:42;27.85;;;17.35;;
64903;SDS011;51401;48.882;12.598;2023-02-23T15:40:11;25.85;;;17.85;;
64903;SDS011;51401;48.882;12.598;2023-02-23T15:42:41;28.10;;;17.92;;
64903;SDS011;51401;48.882;12.598;2023-02-23T15:45:13;32.08;;;19.42;;
64903;SDS011;51401;48.882;12.598;2023-02-23T15:47:43;26.55;;;16.73;;
64903;SDS011;51401;48.882;12.598;2023-02-23T15:52:51;28.88;;;17.65;;
64903;SDS011;51401;48.882;12.598;2023-02-23T15:55:23;28.48;;;17.92;;
64903;SDS011;51401;48.882;12.598;2023-02-23T15:57:52;29.48;;;18.00;;
64903;SDS011;51401;48.882;12.598;2023-02-23T16:00:36;28.17;;;17.38;;
64903;SDS011;51401;48.882;12.598;2023-02-23T16:03:03;28.13;;;17.38;;
64903;SDS011;51401;48.882;12.598;2023-02-23T16:05:31;25.75;;;16.75;;
64903;SDS011;51401;48.882;12.598;2023-02-23T16:08:18;27.65;;;17.02;;
64903;SDS011;51401;48.882;12.598;2023-02-23T16:10:47;24.42;;;15.80;;
64903;SDS011;51401;48.882;12.598;2023-02-23T16:13:19;27.75;;;16.63;;
64903;SDS011;51401;48.882;12.598;2023-02-23T16:15:46;24.25;;;16.10;;
64903;SDS011;51401;48.882;12.598;2023-02-23T16:18:21;27.23;;;16.65;;
64903;SDS011;51401;48.882;12.598;2023-02-23T16:20:58;29.50;;;17.33;;
64903;SDS011;51401;48.882;12.598;2023-02-23T16:23:26;27.83;;;18.23;;
64903;SDS011;51401;48.882;12.598;2023-02-23T16:25:59;29.85;;;17.90;;
64903;SDS011;51401;48.882;12.598;2023-02-23T16:28:30;25.65;;;16.25;;
64903;SDS011;51401;48.882;12.598;2023-02-23T16:33:28;27.38;;;16.50;;
64903;SDS011;51401;48.882;12.598;2023-02-23T16:36:20;30.75;;;18.67;;
64903;SDS011;51401;48.882;12.598;2023-02-23T16:39:11;28.38;;;16.38;;
64903;SDS011;51401;48.882;12.598;2023-02-23T16:41:37;27.88;;;18.20;;
64903;SDS011;51401;48.882;12.598;2023-02-23T16:44:03;29.77;;;17.02;;
64903;SDS011;51401;48.882;12.598;2023-02-23T16:46:31;28.27;;;17.73;;
64903;SDS011;51401;48.882;12.598;2023-02-23T16:49:05;27.90;;;17.70;;
64903;SDS011;51401;48.882;12.598;2023-02-23T16:51:34;30.73;;;16.92;;
64903;SDS011;51401;48.882;12.598;2023-02-23T16:54:00;29.45;;;18.05;;
64903;SDS011;51401;48.882;12.598;2023-02-23T16:56:28;25.23;;;16.63;;
64903;SDS011;51401;48.882;12.598;2023-02-23T16:58:56;28.98;;;18.13;;
64903;SDS011;51401;48.882;12.598;2023-02-23T17:01:24;28.17;;;17.80;;